Time;durP1;ratioP1;P1;durP2;ratioP2;P2;SDS_P1;SDS_P2;PMS_P1;PMS_P2;Temp;Humidity;BMP_temperature;BMP_pressure;BME280_temperature;BME280_humidity;BME280_pressure;Samples;Min_cycle;Max_cycle;Signal;HPM_P1;HPM_P2
2023/04/20 00:00:32;;;;;;;2.67;1.90;;;4.30;98.00;;;;;;5031891;28;20545;-64
2023/04/20 00:03:02;;;;;;;3.27;2.03;;;4.10;98.00;;;;;;5031759;28;20455;-63
2023/04/20 00:05:30;;;;;;;2.93;1.80;;;4.10;98.00;;;;;;5032346;28;20460;-65
2023/04/20 00:07:58;;;;;;;1.70;1.50;;;4.20;98.00;;;;;;5032024;28;20460;-64
2023/04/20 00:10:25;;;;;;;17.20;2.50;;;4.00;98.00;;;;;;5031966;28;20975;-64
2023/04/20 00:12:54;;;;;;;3.03;2.13;;;4.00;98.00;;;;;;5031752;28;20458;-63
2023/04/20 00:15:21;;;;;;;3.50;2.20;;;4.10;98.00;;;;;;5032048;28;20505;-65
2023/04/20 00:17:50;;;;;;;6.80;2.43;;;4.20;98.00;;;;;;5032449;28;20454;-64
2023/04/20 00:20:19;;;;;;;4.07;1.80;;;4.10;98.00;;;;;;5031813;28;20465;-65
2023/04/20 00:22:47;;;;;;;4.17;2.40;;;3.90;98.00;;;;;;5032597;28;20459;-66
2023/04/20 00:25:14;;;;;;;3.93;1.90;;;4.00;98.00;;;;;;5031707;28;20459;-64
2023/04/20 00:27:41;;;;;;;3.67;2.50;;;3.90;98.00;;;;;;5031538;28;20544;-64
2023/04/20 00:30:12;;;;;;;4.73;2.70;;;3.90;98.00;;;;;;5031810;28;20459;-64
2023/04/20 00:32:39;;;;;;;4.47;2.07;;;3.80;98.00;;;;;;5031365;28;20465;-66
2023/04/20 00:35:08;;;;;;;1.97;1.73;;;3.90;98.00;;;;;;5031319;28;20494;-64
2023/04/20 00:37:35;;;;;;;4.53;2.30;;;3.80;98.00;;;;;;5031355;28;20465;-63
2023/04/20 00:40:03;;;;;;;1.90;1.73;;;3.80;98.00;;;;;;5031154;28;20825;-64
2023/04/20 00:42:30;;;;;;;1.93;1.90;;;3.80;98.00;;;;;;5031043;28;20456;-64
2023/04/20 00:44:57;;;;;;;2.13;1.80;;;3.90;98.00;;;;;;5029957;28;20822;-65
2023/04/20 00:47:25;;;;;;;2.60;2.00;;;3.90;98.00;;;;;;5031129;28;20466;-64
2023/04/20 00:49:54;;;;;;;4.70;2.67;;;3.90;98.00;;;;;;5031262;28;20732;-64
2023/04/20 00:52:22;;;;;;;2.43;1.97;;;4.00;98.00;;;;;;5031320;28;20460;-64
2023/04/20 00:54:49;;;;;;;2.50;2.00;;;3.90;98.00;;;;;;5031053;28;20901;-65
2023/04/20 00:57:22;;;;;;;1.60;1.57;;;3.90;98.00;;;;;;5031101;28;20857;-65
2023/04/20 00:59:50;;;;;;;2.67;1.60;;;3.80;98.00;;;;;;5031157;28;20499;-66
2023/04/20 01:02:18;;;;;;;2.03;1.60;;;3.80;98.00;;;;;;5031116;28;20950;-66
2023/04/20 01:04:47;;;;;;;4.93;2.20;;;3.90;98.00;;;;;;5030021;28;20550;-64
2023/04/20 01:07:14;;;;;;;2.23;1.80;;;4.00;98.00;;;;;;5030760;28;20814;-64
2023/04/20 01:09:41;;;;;;;3.37;2.00;;;4.10;98.00;;;;;;5031096;28;20461;-65
2023/04/20 01:12:10;;;;;;;2.20;2.00;;;4.10;98.00;;;;;;5030988;28;20553;-64
2023/04/20 01:14:37;;;;;;;2.00;1.60;;;4.00;98.00;;;;;;5030790;28;20496;-63
2023/04/20 01:17:04;;;;;;;3.13;2.07;;;4.20;98.00;;;;;;5030064;28;20801;-64
2023/04/20 01:19:32;;;;;;;3.50;2.10;;;4.10;98.00;;;;;;5031044;28;20473;-65
2023/04/20 01:22:01;;;;;;;2.43;1.60;;;4.10;98.00;;;;;;5030966;28;20461;-64
2023/04/20 01:24:30;;;;;;;3.30;1.90;;;4.10;98.00;;;;;;5030938;28;20537;-64
2023/04/20 01:26:57;;;;;;;2.17;1.90;;;4.00;98.00;;;;;;5030804;28;20453;-64
2023/04/20 01:29:24;;;;;;;2.20;1.60;;;4.00;98.00;;;;;;5030917;28;20545;-64
2023/04/20 01:31:52;;;;;;;4.50;1.80;;;3.90;98.00;;;;;;5029361;28;20538;-65
2023/04/20 01:34:19;;;;;;;1.60;1.50;;;3.70;98.00;;;;;;5029339;28;21132;-64
2023/04/20 01:36:46;;;;;;;2.80;1.97;;;3.60;98.00;;;;;;5030739;28;20460;-64
2023/04/20 01:39:13;;;;;;;1.70;1.37;;;3.40;98.00;;;;;;5030639;28;20511;-64
2023/04/20 01:41:41;;;;;;;2.37;2.23;;;3.30;98.00;;;;;;5030579;28;20974;-64
2023/04/20 01:44:08;;;;;;;5.53;1.67;;;3.20;98.00;;;;;;5030435;28;20459;-64
2023/04/20 01:46:38;;;;;;;2.53;1.93;;;3.10;98.00;;;;;;5030746;28;20453;-64
2023/04/20 01:49:05;;;;;;;2.37;1.90;;;3.00;98.00;;;;;;5030445;28;20555;-64
2023/04/20 01:51:32;;;;;;;3.13;1.80;;;2.90;98.00;;;;;;5031040;28;20879;-65
2023/04/20 01:54:00;;;;;;;3.47;1.90;;;2.90;98.00;;;;;;5034162;28;20579;-64
2023/04/20 01:56:30;;;;;;;3.80;2.40;;;3.10;98.00;;;;;;5034282;28;20446;-64
2023/04/20 01:58:58;;;;;;;2.90;2.20;;;2.90;98.00;;;;;;5034471;28;20526;-64
2023/04/20 02:01:25;;;;;;;2.70;1.73;;;2.80;98.00;;;;;;5034541;28;20473;-64
2023/04/20 02:03:53;;;;;;;3.03;2.10;;;2.80;98.00;;;;;;5034073;28;20455;-65
2023/04/20 02:06:20;;;;;;;4.10;1.83;;;;;;;;;;5034593;28;20464;-64
2023/04/20 02:08:47;;;;;;;1.97;1.70;;;2.70;98.00;;;;;;5033881;28;20450;-64
2023/04/20 02:11:14;;;;;;;2.70;2.10;;;2.70;98.00;;;;;;5033979;28;20495;-64
2023/04/20 02:13:41;;;;;;;1.97;1.60;;;2.70;98.00;;;;;;5033772;28;20464;-66
2023/04/20 02:16:10;;;;;;;2.83;1.60;;;2.80;98.00;;;;;;5033971;28;20470;-64
2023/04/20 02:18:38;;;;;;;2.67;2.00;;;2.70;98.00;;;;;;5033805;28;20542;-66
2023/04/20 02:21:06;;;;;;;3.03;1.80;;;2.70;98.00;;;;;;5033817;28;20548;-65
2023/04/20 02:23:33;;;;;;;2.73;2.07;;;2.80;98.00;;;;;;5033843;28;20812;-64
2023/04/20 02:26:01;;;;;;;1.80;1.60;;;2.80;98.00;;;;;;5033637;28;20502;-64
2023/04/20 02:28:28;;;;;;;2.50;2.03;;;2.80;98.00;;;;;;5033686;28;20509;-65
2023/04/20 02:30:55;;;;;;;3.47;2.30;;;2.80;98.00;;;;;;5033487;28;20514;-66
2023/04/20 02:33:24;;;;;;;2.50;1.87;;;2.90;98.00;;;;;;5033899;28;20619;-64
2023/04/20 02:35:51;;;;;;;2.63;1.87;;;3.00;98.00;;;;;;5033375;28;20486;-64
2023/04/20 02:38:18;;;;;;;2.77;1.90;;;3.00;98.00;;;;;;5033385;28;20455;-65
2023/04/20 02:40:45;;;;;;;2.67;2.00;;;3.20;98.00;;;;;;5033390;28;20464;-64
2023/04/20 02:43:12;;;;;;;2.60;2.27;;;3.10;98.00;;;;;;5033170;28;20472;-65
2023/04/20 02:45:39;;;;;;;3.17;2.00;;;3.00;98.00;;;;;;5033350;28;20467;-64
2023/04/20 02:48:06;;;;;;;4.30;2.20;;;2.90;98.00;;;;;;5032036;28;20459;-64
2023/04/20 02:50:36;;;;;;;3.37;1.97;;;2.70;98.00;;;;;;5033284;28;20950;-65
2023/04/20 02:53:03;;;;;;;1.73;1.37;;;2.70;98.00;;;;;;5033475;28;20463;-65
2023/04/20 02:55:31;;;;;;;2.20;1.67;;;2.60;98.00;;;;;;5033359;28;20483;-64
2023/04/20 02:57:58;;;;;;;4.00;1.60;;;2.70;98.00;;;;;;5033387;28;20451;-64
2023/04/20 03:00:25;;;;;;;2.80;1.80;;;2.60;98.00;;;;;;5033251;28;20462;-64
2023/04/20 03:02:52;;;;;;;2.77;1.87;;;2.60;98.00;;;;;;5032977;28;20462;-65
2023/04/20 03:05:19;;;;;;;4.53;2.20;;;2.70;98.00;;;;;;5032465;28;20554;-64
2023/04/20 03:07:50;;;;;;;1.63;1.60;;;2.60;98.00;;;;;;5033095;28;20859;-64
2023/04/20 03:10:17;;;;;;;3.13;2.17;;;2.50;98.00;;;;;;5030363;28;21004;-64
2023/04/20 03:12:44;;;;;;;2.37;1.90;;;2.50;98.00;;;;;;5032799;28;20466;-64
2023/04/20 03:15:11;;;;;;;7.10;2.57;;;2.50;98.00;;;;;;5032604;28;20482;-66
2023/04/20 03:17:38;;;;;;;3.47;2.50;;;2.40;98.00;;;;;;5032678;28;20982;-64
2023/04/20 03:20:07;;;;;;;3.03;2.23;;;2.30;98.00;;;;;;5032589;28;20954;-63
2023/04/20 03:22:35;;;;;;;1.93;1.60;;;2.30;98.00;;;;;;5032741;28;20453;-64
2023/04/20 03:25:03;;;;;;;1.97;1.80;;;2.30;98.00;;;;;;5032467;28;20465;-65
2023/04/20 03:27:31;;;;;;;1.60;1.50;;;2.40;98.00;;;;;;5032563;28;20529;-64
2023/04/20 03:29:59;;;;;;;2.13;1.70;;;2.40;98.00;;;;;;5032292;28;20469;-65
2023/04/20 03:32:26;;;;;;;2.43;1.90;;;2.40;98.00;;;;;;5032723;28;20487;-64
2023/04/20 03:34:53;;;;;;;3.63;2.33;;;2.20;98.00;;;;;;5032229;28;20487;-64
2023/04/20 03:37:20;;;;;;;4.20;2.00;;;2.10;98.00;;;;;;5032434;28;20959;-65
2023/04/20 03:39:47;;;;;;;2.13;1.90;;;2.10;98.00;;;;;;5032288;28;20461;-64
2023/04/20 03:42:16;;;;;;;1.53;1.40;;;2.20;98.00;;;;;;5032291;28;20497;-65
2023/04/20 03:44:43;;;;;;;2.90;2.13;;;2.30;98.00;;;;;;5032291;28;20664;-63
2023/04/20 03:47:10;;;;;;;3.17;2.30;;;2.20;98.00;;;;;;5032387;28;20463;-64
2023/04/20 03:49:38;;;;;;;7.60;2.63;;;2.20;98.00;;;;;;5032293;28;20957;-65
2023/04/20 03:52:06;;;;;;;1.83;1.67;;;2.00;98.00;;;;;;5032157;28;20451;-63
2023/04/20 03:54:34;;;;;;;2.40;1.60;;;1.90;98.00;;;;;;5031843;28;20462;-64
2023/04/20 03:57:01;;;;;;;1.40;1.37;;;2.10;98.00;;;;;;5030897;28;20884;-64
2023/04/20 03:59:31;;;;;;;2.87;2.10;;;2.00;98.00;;;;;;5031887;28;20500;-63
2023/04/20 04:02:00;;;;;;;2.23;2.03;;;1.90;98.00;;;;;;5031497;28;20971;-64
2023/04/20 04:04:27;;;;;;;2.40;2.10;;;1.90;98.00;;;;;;5031875;28;20962;-64
2023/04/20 04:06:54;;;;;;;1.60;1.50;;;1.90;98.00;;;;;;5031768;28;20511;-64
2023/04/20 04:09:21;;;;;;;3.60;1.87;;;2.00;98.00;;;;;;5030418;28;20965;-65
2023/04/20 04:11:50;;;;;;;2.90;2.37;;;2.00;98.00;;;;;;5031613;28;20463;-63
2023/04/20 04:14:18;;;;;;;3.63;2.00;;;2.10;98.00;;;;;;5031676;28;20499;-63
2023/04/20 04:16:46;;;;;;;2.33;1.80;;;2.20;98.00;;;;;;5030469;28;20495;-64
2023/04/20 04:19:13;;;;;;;1.90;1.60;;;2.20;98.00;;;;;;5030330;28;20458;-66
2023/04/20 04:21:41;;;;;;;2.13;2.00;;;2.30;98.00;;;;;;5031689;28;20683;-67
2023/04/20 04:24:09;;;;;;;2.33;1.57;;;2.30;98.00;;;;;;5031293;28;20448;-64
2023/04/20 04:26:36;;;;;;;7.80;2.80;;;2.20;98.00;;;;;;5031447;28;20469;-64
2023/04/20 04:29:05;;;;;;;2.37;2.07;;;2.10;98.00;;;;;;5030123;28;20469;-63
2023/04/20 04:31:33;;;;;;;1.63;1.60;;;2.00;98.00;;;;;;5031535;28;20459;-65
2023/04/20 04:34:03;;;;;;;4.30;1.93;;;1.90;98.00;;;;;;5031235;28;20978;-64
2023/04/20 04:36:31;;;;;;;5.00;1.93;;;1.80;98.00;;;;;;5031160;28;20570;-64
2023/04/20 04:38:58;;;;;;;2.60;1.70;;;1.90;98.00;;;;;;5031462;28;20459;-64
2023/04/20 04:41:25;;;;;;;2.17;1.83;;;1.90;98.00;;;;;;5031546;28;20466;-64
2023/04/20 04:43:52;;;;;;;7.33;2.07;;;2.00;98.00;;;;;;5031325;28;20470;-64
2023/04/20 04:46:19;;;;;;;3.00;1.87;;;2.00;98.00;;;;;;5030096;28;20502;-64
2023/04/20 04:48:46;;;;;;;2.97;2.13;;;2.00;98.00;;;;;;5031175;28;20475;-64
2023/04/20 04:51:15;;;;;;;2.23;1.97;;;2.00;98.00;;;;;;5031003;28;20464;-65
2023/04/20 04:53:45;;;;;;;3.67;2.50;;;2.10;98.00;;;;;;5031084;28;20447;-64
2023/04/20 04:56:14;;;;;;;2.77;2.03;;;2.10;98.00;;;;;;5030949;28;20482;-63
2023/04/20 04:58:41;;;;;;;4.20;2.20;;;2.20;98.00;;;;;;5030841;28;20495;-65
2023/04/20 05:01:08;;;;;;;2.60;1.90;;;2.30;98.00;;;;;;5030951;28;20460;-64
2023/04/20 05:03:36;;;;;;;2.23;1.57;;;2.40;98.00;;;;;;5030929;28;20456;-63
2023/04/20 05:06:03;;;;;;;3.03;2.17;;;2.40;98.00;;;;;;5029894;28;20517;-64
2023/04/20 05:08:31;;;;;;;2.80;2.00;;;2.60;98.00;;;;;;5031106;28;20463;-63
2023/04/20 05:10:59;;;;;;;3.70;2.53;;;2.40;98.00;;;;;;5031108;28;20470;-65
2023/04/20 05:13:26;;;;;;;3.50;2.00;;;2.60;98.00;;;;;;5030920;28;20455;-63
2023/04/20 05:15:53;;;;;;;4.70;2.53;;;2.60;98.00;;;;;;5030988;28;20482;-65
2023/04/20 05:18:20;;;;;;;6.70;3.40;;;2.50;98.00;;;;;;5031038;28;20877;-64
2023/04/20 05:20:47;;;;;;;2.73;1.73;;;2.50;98.00;;;;;;5031088;28;20462;-63
2023/04/20 05:23:15;;;;;;;3.57;2.70;;;2.40;98.00;;;;;;5031105;28;21023;-65
2023/04/20 05:25:44;;;;;;;3.47;1.87;;;2.30;98.00;;;;;;5030905;28;20457;-64
2023/04/20 05:28:11;;;;;;;6.63;2.80;;;2.30;98.00;;;;;;5033888;28;20501;-64
2023/04/20 05:30:38;;;;;;;2.80;2.37;;;2.30;98.00;;;;;;5035006;28;20455;-65
2023/04/20 05:33:05;;;;;;;3.80;2.03;;;2.40;98.00;;;;;;5034281;28;20454;-64
2023/04/20 05:35:32;;;;;;;3.67;2.30;;;2.30;98.00;;;;;;5035235;28;20548;-65
2023/04/20 05:38:04;;;;;;;1.70;1.53;;;2.50;98.00;;;;;;5229108;22;20496;-65
2023/04/20 05:40:33;;;;;;;4.90;2.33;;;2.60;98.00;;;;;;5034680;28;20974;-64
2023/04/20 05:43:01;;;;;;;3.77;2.30;;;2.70;98.00;;;;;;5033408;28;20457;-64
2023/04/20 05:45:28;;;;;;;3.67;2.70;;;2.70;98.00;;;;;;5034545;28;20982;-65
2023/04/20 05:47:56;;;;;;;4.90;2.33;;;2.70;98.00;;;;;;5034560;28;20517;-65
2023/04/20 05:50:24;;;;;;;2.60;2.13;;;2.80;98.00;;;;;;5034364;28;20455;-65
2023/04/20 05:52:51;;;;;;;3.60;2.27;;;2.70;98.00;;;;;;5034519;28;20466;-65
2023/04/20 05:55:18;;;;;;;3.20;2.10;;;2.80;98.00;;;;;;5034261;28;20482;-65
2023/04/20 05:57:45;;;;;;;2.23;2.10;;;3.00;98.00;;;;;;5034337;28;20489;-65
2023/04/20 06:00:17;;;;;;;3.00;2.27;;;3.10;98.00;;;;;;5034130;28;20454;-65
2023/04/20 06:02:44;;;;;;;2.33;1.83;;;3.20;98.00;;;;;;5033276;28;20461;-65
2023/04/20 06:05:12;;;;;;;3.37;2.53;;;3.30;98.00;;;;;;5032835;28;20460;-65
2023/04/20 06:07:39;;;;;;;2.90;1.90;;;3.40;98.00;;;;;;5032909;28;20457;-65
2023/04/20 06:10:07;;;;;;;5.50;2.90;;;3.40;98.00;;;;;;5034079;28;21067;-65
2023/04/20 06:12:35;;;;;;;2.50;2.07;;;3.40;98.00;;;;;;5034101;28;20814;-65
2023/04/20 06:15:05;;;;;;;5.17;2.23;;;3.40;98.00;;;;;;5033902;28;20545;-65
2023/04/20 06:17:35;;;;;;;4.53;2.63;;;3.40;98.00;;;;;;5034086;28;20506;-65
2023/04/20 06:20:02;;;;;;;3.53;2.43;;;3.40;98.00;;;;;;5033911;28;20465;-65
2023/04/20 06:22:29;;;;;;;4.17;2.67;;;3.50;98.00;;;;;;5034135;28;20460;-65
2023/04/20 06:24:57;;;;;;;3.10;2.27;;;3.60;98.00;;;;;;5033996;28;20535;-65
2023/04/20 06:27:26;;;;;;;5.07;2.60;;;3.70;98.00;;;;;;5034247;28;20457;-65
2023/04/20 06:29:53;;;;;;;8.50;2.97;;;4.00;98.00;;;;;;5033580;28;20505;-65
2023/04/20 06:32:20;;;;;;;4.73;2.63;;;4.10;98.00;;;;;;5033716;28;20797;-65
2023/04/20 06:34:49;;;;;;;4.03;2.77;;;4.30;98.00;;;;;;5033619;28;20463;-65
2023/04/20 06:37:17;;;;;;;3.00;2.30;;;4.50;98.00;;;;;;5033380;28;20512;-66
2023/04/20 06:39:44;;;;;;;3.57;2.20;;;4.60;98.00;;;;;;5032510;28;20792;-65
2023/04/20 06:42:11;;;;;;;4.43;2.80;;;4.70;98.00;;;;;;5031724;28;20649;-65
2023/04/20 06:44:38;;;;;;;5.57;2.80;;;4.80;98.00;;;;;;5033363;28;20465;-63
2023/04/20 06:47:05;;;;;;;4.33;2.37;;;4.90;98.00;;;;;;5033388;28;20527;-63
2023/04/20 06:49:32;;;;;;;7.10;3.37;;;4.90;98.00;;;;;;5033502;28;20830;-63
2023/04/20 06:52:01;;;;;;;4.43;2.90;;;4.90;98.00;;;;;;5033341;28;20453;-63
2023/04/20 06:54:28;;;;;;;5.03;2.73;;;5.10;98.00;;;;;;5033341;28;20466;-63
2023/04/20 06:56:55;;;;;;;3.40;2.53;;;5.20;98.00;;;;;;5033143;28;20492;-63
2023/04/20 06:59:22;;;;;;;6.67;3.60;;;5.50;98.00;;;;;;5031972;28;20586;-63
2023/04/20 07:01:49;;;;;;;6.97;3.17;;;5.60;98.00;;;;;;5031800;28;20877;-64
2023/04/20 07:04:16;;;;;;;5.53;2.70;;;5.90;98.00;;;;;;5032713;28;20454;-64
2023/04/20 07:06:44;;;;;;;4.60;3.13;;;6.20;98.00;;;;;;5033025;28;20462;-63
2023/04/20 07:09:12;;;;;;;7.83;3.43;;;6.30;98.00;;;;;;5032845;28;20465;-64
2023/04/20 07:11:39;;;;;;;6.17;3.57;;;6.50;98.00;;;;;;5032795;28;20458;-64
2023/04/20 07:14:07;;;;;;;5.07;3.20;;;6.70;98.00;;;;;;5032920;28;20455;-63
2023/04/20 07:16:34;;;;;;;5.90;3.40;;;6.80;98.00;;;;;;5032943;28;20486;-63
2023/04/20 07:19:02;;;;;;;8.73;3.23;;;6.90;98.00;;;;;;5033088;28;20509;-63
2023/04/20 07:21:30;;;;;;;4.50;3.00;;;6.80;98.00;;;;;;5033569;28;20505;-64
2023/04/20 07:23:57;;;;;;;4.50;2.80;;;6.80;98.00;;;;;;5032053;28;20461;-64
2023/04/20 07:26:26;;;;;;;11.60;3.83;;;6.90;98.00;;;;;;5033055;28;20486;-64
2023/04/20 07:28:54;;;;;;;6.17;2.93;;;6.90;98.00;;;;;;5033026;28;20462;-64
2023/04/20 07:31:23;;;;;;;5.83;3.60;;;6.90;98.00;;;;;;5032975;28;20837;-64
2023/04/20 07:33:51;;;;;;;5.27;2.73;;;6.90;98.00;;;;;;5032401;28;20482;-64
2023/04/20 07:36:20;;;;;;;5.83;3.20;;;7.00;98.00;;;;;;5033790;28;20487;-64
2023/04/20 07:38:47;;;;;;;7.03;3.60;;;7.00;98.00;;;;;;5031934;28;20533;-63
2023/04/20 07:41:14;;;;;;;8.47;3.30;;;7.10;98.00;;;;;;5032276;28;20467;-64
2023/04/20 07:43:43;;;;;;;9.40;3.30;;;7.00;98.00;;;;;;5032522;28;20460;-63
2023/04/20 07:46:10;;;;;;;4.60;2.93;;;7.10;98.00;;;;;;5032264;28;20455;-64
2023/04/20 07:48:38;;;;;;;7.27;3.10;;;7.00;98.00;;;;;;5032139;28;20459;-64
2023/04/20 07:51:05;;;;;;;6.23;3.63;;;7.00;98.00;;;;;;5032121;28;20451;-64
2023/04/20 07:53:34;;;;;;;5.33;3.00;;;7.00;98.00;;;;;;5031911;28;20460;-64
2023/04/20 07:56:01;;;;;;;8.60;4.33;;;7.00;98.00;;;;;;5030985;28;20849;-64
2023/04/20 07:58:28;;;;;;;6.13;3.43;;;6.90;98.00;;;;;;5031915;28;20462;-64
2023/04/20 08:00:56;;;;;;;6.97;2.50;;;7.00;98.00;;;;;;5031940;28;20463;-64
2023/04/20 08:03:26;;;;;;;6.50;3.17;;;7.00;98.00;;;;;;5031737;28;20458;-64
2023/04/20 08:05:53;;;;;;;5.73;2.43;;;7.10;98.00;;;;;;5030713;28;20550;-64
2023/04/20 08:08:20;;;;;;;5.70;2.93;;;7.20;98.00;;;;;;5031807;28;20793;-64
2023/04/20 08:10:47;;;;;;;7.93;3.60;;;7.20;98.00;;;;;;5031883;28;20464;-64
2023/04/20 08:13:14;;;;;;;5.73;3.27;;;7.30;98.00;;;;;;5031605;28;20854;-64
2023/04/20 08:15:41;;;;;;;9.37;3.73;;;7.50;98.00;;;;;;5031790;28;20950;-64
2023/04/20 08:18:10;;;;;;;7.63;3.43;;;7.40;98.00;;;;;;5031906;28;20457;-64
2023/04/20 08:20:39;;;;;;;4.93;2.90;;;7.60;98.00;;;;;;5031951;28;20832;-64
2023/04/20 08:23:06;;;;;;;10.73;4.90;;;7.60;98.00;;;;;;5030732;28;20450;-64
2023/04/20 08:25:33;;;;;;;7.20;3.50;;;7.60;98.00;;;;;;5031902;28;20911;-64
2023/04/20 08:28:00;;;;;;;4.53;3.10;;;7.60;98.00;;;;;;5031314;28;20459;-64
2023/04/20 08:30:27;;;;;;;4.37;3.10;;;7.60;98.00;;;;;;5031815;28;20826;-64
2023/04/20 08:32:54;;;;;;;6.07;3.53;;;7.60;98.00;;;;;;5030509;28;20460;-64
2023/04/20 08:35:33;;;;;;;6.53;3.67;;;7.60;98.00;;;;;;5031598;28;20600;-64
2023/04/20 08:38:00;;;;;;;6.40;3.40;;;7.60;98.00;;;;;;5031385;28;20496;-64
2023/04/20 08:40:28;;;;;;;11.70;3.97;;;7.60;98.00;;;;;;5031482;28;20450;-64
2023/04/20 08:42:58;;;;;;;8.53;3.10;;;7.60;98.00;;;;;;5031673;28;20519;-64
2023/04/20 08:45:25;;;;;;;5.27;3.50;;;7.70;98.00;;;;;;5031377;28;20460;-64
2023/04/20 08:47:53;;;;;;;7.20;3.40;;;7.60;98.00;;;;;;5031370;28;20469;-64
2023/04/20 08:50:21;;;;;;;5.17;3.10;;;7.70;98.00;;;;;;5031306;28;20471;-64
2023/04/20 08:52:49;;;;;;;5.77;3.20;;;7.80;98.00;;;;;;5031589;28;20463;-64
2023/04/20 08:55:17;;;;;;;8.90;3.57;;;7.80;98.00;;;;;;5031554;28;20882;-64
2023/04/20 08:57:46;;;;;;;7.70;4.10;;;7.80;98.00;;;;;;5031369;28;20487;-64
2023/04/20 09:00:14;;;;;;;4.93;3.00;;;7.80;98.00;;;;;;5031199;28;20459;-64
2023/04/20 09:02:51;;;;;;;7.40;3.63;;;7.80;98.00;;;;;;5030765;28;20456;-64
2023/04/20 09:05:26;;;;;;;6.33;3.10;;;7.80;98.00;;;;;;5031220;28;20489;-65
2023/04/20 09:07:57;;;;;;;10.63;4.20;;;7.80;98.00;;;;;;5030936;28;20552;-64
2023/04/20 09:10:24;;;;;;;6.63;3.53;;;7.80;98.00;;;;;;5031205;28;20467;-64
2023/04/20 09:12:51;;;;;;;6.60;3.63;;;7.90;98.00;;;;;;5031319;28;20800;-64
2023/04/20 09:15:25;;;;;;;5.70;2.93;;;8.00;98.00;;;;;;5031407;28;20485;-64
2023/04/20 09:17:52;;;;;;;6.43;3.37;;;8.10;98.00;;;;;;5031150;28;20480;-64
2023/04/20 09:20:31;;;;;;;8.10;3.77;;;8.10;98.00;;;;;;5031272;28;20537;-64
2023/04/20 09:23:11;;;;;;;8.00;4.10;;;8.20;98.00;;;;;;5030031;28;21005;-64
2023/04/20 09:25:39;;;;;;;5.27;3.37;;;8.30;98.00;;;;;;5031078;28;20490;-64
2023/04/20 09:28:08;;;;;;;8.30;4.17;;;8.30;98.00;;;;;;5031131;28;20962;-64
2023/04/20 09:30:39;;;;;;;7.83;3.70;;;8.30;98.00;;;;;;5030803;28;20535;-64
2023/04/20 09:33:09;;;;;;;9.17;3.50;;;8.20;98.00;;;;;;5031046;28;20454;-65
2023/04/20 09:35:37;;;;;;;6.30;3.20;;;8.30;98.00;;;;;;5031052;28;20457;-64
2023/04/20 09:38:05;;;;;;;10.20;4.13;;;8.30;98.00;;;;;;5030689;28;20500;-64
2023/04/20 09:40:33;;;;;;;8.90;4.23;;;8.50;98.00;;;;;;5030869;28;20473;-64
2023/04/20 09:43:11;;;;;;;7.60;3.30;;;8.70;98.00;;;;;;5030812;28;20548;-64
2023/04/20 09:45:39;;;;;;;9.27;4.00;;;8.90;98.00;;;;;;5030783;28;20465;-64
2023/04/20 09:48:07;;;;;;;9.43;3.80;;;9.10;98.00;;;;;;5030884;28;20489;-65
2023/04/20 09:50:36;;;;;;;5.67;2.97;;;9.10;98.00;;;;;;5030855;28;20830;-64
2023/04/20 09:53:05;;;;;;;6.90;3.20;;;9.20;98.00;;;;;;5030900;28;20943;-64
2023/04/20 09:55:32;;;;;;;4.53;2.80;;;9.20;98.00;;;;;;5030691;28;20515;-64
2023/04/20 09:58:02;;;;;;;6.83;3.43;;;9.20;98.00;;;;;;5030673;28;20550;-64
2023/04/20 10:00:31;;;;;;;6.23;3.77;;;9.10;98.00;;;;;;5030722;28;20497;-64
2023/04/20 10:02:58;;;;;;;7.10;3.17;;;9.10;98.00;;;;;;5030724;28;20843;-64
2023/04/20 10:05:38;;;;;;;6.40;3.23;;;9.00;98.00;;;;;;5030667;28;20453;-64
2023/04/20 10:08:07;;;;;;;6.17;3.53;;;9.10;98.00;;;;;;5030864;28;20825;-65
2023/04/20 10:10:45;;;;;;;7.87;3.57;;;9.10;98.00;;;;;;5031024;28;20456;-65
2023/04/20 10:13:12;;;;;;;4.97;3.13;;;8.90;98.00;;;;;;5030773;28;20965;-65
2023/04/20 10:15:41;;;;;;;7.53;3.30;;;8.90;98.00;;;;;;5033881;28;20461;-65
2023/04/20 10:18:18;;;;;;;6.83;2.93;;;8.70;98.00;;;;;;5033979;28;20558;-65
2023/04/20 10:20:46;;;;;;;6.13;3.37;;;8.70;98.00;;;;;;5034020;28;20510;-65
2023/04/20 10:23:17;;;;;;;7.80;3.20;;;8.80;98.00;;;;;;5034111;28;20461;-65
2023/04/20 10:25:55;;;;;;;8.87;3.53;;;8.90;98.00;;;;;;5033965;28;20462;-65
2023/04/20 10:28:22;;;;;;;8.60;3.43;;;9.00;98.00;;;;;;5034042;28;20459;-65
2023/04/20 10:30:53;;;;;;;5.80;3.37;;;9.10;98.00;;;;;;5033728;28;20477;-65
2023/04/20 10:33:21;;;;;;;8.40;3.47;;;9.00;98.00;;;;;;5033914;28;20823;-65
2023/04/20 10:35:50;;;;;;;6.73;3.40;;;9.10;98.00;;;;;;5033778;28;20994;-65
2023/04/20 10:38:30;;;;;;;6.13;3.47;;;9.20;98.00;;;;;;5033624;28;20584;-64
2023/04/20 10:40:58;;;;;;;4.37;3.13;;;9.20;98.00;;;;;;5033741;28;20551;-64
2023/04/20 10:43:25;;;;;;;3.83;2.73;;;9.30;98.00;;;;;;5033532;28;20461;-64
2023/04/20 10:45:52;;;;;;;9.00;3.40;;;9.20;98.00;;;;;;5033544;28;20974;-65
2023/04/20 10:48:19;;;;;;;6.33;3.13;;;9.10;98.00;;;;;;5033613;28;20462;-65
2023/04/20 10:50:46;;;;;;;14.43;4.27;;;9.10;98.00;;;;;;5033433;28;20507;-65
2023/04/20 10:53:21;;;;;;;7.10;3.40;;;9.10;98.00;;;;;;5032252;28;20558;-65
2023/04/20 10:56:01;;;;;;;7.13;3.37;;;9.00;98.00;;;;;;5033436;28;20455;-65
2023/04/20 10:58:28;;;;;;;11.53;4.37;;;9.00;98.00;;;;;;5032035;28;20493;-65
2023/04/20 11:00:59;;;;;;;4.50;3.00;;;9.00;98.00;;;;;;5033303;28;20470;-65
2023/04/20 11:03:28;;;;;;;9.13;3.93;;;9.20;98.00;;;;;;5033669;28;20791;-65
2023/04/20 11:05:59;;;;;;;9.33;4.30;;;9.30;98.00;;;;;;5033625;28;20450;-65
2023/04/20 11:08:37;;;;;;;9.83;3.90;;;9.40;98.00;;;;;;5033297;28;20951;-65
2023/04/20 11:11:06;;;;;;;9.60;4.10;;;9.50;98.00;;;;;;5033247;28;20460;-65
2023/04/20 11:13:35;;;;;;;8.50;3.70;;;9.50;98.00;;;;;;5033175;28;20864;-65
2023/04/20 11:16:11;;;;;;;6.10;3.47;;;9.70;98.00;;;;;;5033114;28;20532;-65
2023/04/20 11:18:57;;;;;;;5.90;3.23;;;10.00;98.00;;;;;;5032802;28;20485;-65
2023/04/20 11:21:25;;;;;;;8.77;4.60;;;10.20;98.00;;;;;;5032979;28;20459;-65
2023/04/20 11:23:52;;;;;;;9.27;4.33;;;10.40;98.00;;;;;;5032803;28;20468;-65
2023/04/20 11:26:20;;;;;;;10.10;3.83;;;10.50;98.00;;;;;;5032631;28;20468;-65
2023/04/20 11:28:54;;;;;;;7.10;3.60;;;10.60;98.00;;;;;;5032670;28;20460;-65
2023/04/20 11:31:22;;;;;;;8.83;4.03;;;10.90;98.00;;;;;;5032987;28;20863;-65
2023/04/20 11:33:49;;;;;;;6.70;3.60;;;11.20;98.00;;;;;;5032668;28;20541;-65
2023/04/20 11:36:20;;;;;;;8.93;3.77;;;11.30;98.00;;;;;;5032670;28;20471;-65
2023/04/20 11:38:47;;;;;;;9.00;3.77;;;11.40;98.00;;;;;;5032255;28;20501;-65
2023/04/20 11:41:14;;;;;;;7.83;4.40;;;11.40;98.00;;;;;;5032509;28;20843;-65
2023/04/20 11:43:43;;;;;;;7.73;4.00;;;11.20;98.00;;;;;;5032460;28;20458;-65
2023/04/20 11:46:15;;;;;;;7.43;3.40;;;11.00;98.00;;;;;;5031988;28;20451;-65
2023/04/20 11:48:43;;;;;;;6.47;3.77;;;10.90;98.00;;;;;;5032114;28;20466;-65
2023/04/20 11:51:10;;;;;;;6.80;3.50;;;10.90;98.00;;;;;;5031139;28;20466;-65
2023/04/20 11:53:38;;;;;;;7.60;3.80;;;10.90;98.00;;;;;;5030776;28;20596;-65
2023/04/20 11:56:06;;;;;;;5.73;3.20;;;10.80;98.00;;;;;;5032094;28;20470;-65
2023/04/20 11:58:33;;;;;;;7.00;3.00;;;10.70;98.00;;;;;;5031949;28;20490;-65
2023/04/20 12:01:01;;;;;;;7.90;3.57;;;10.70;98.00;;;;;;5032823;28;20462;-65
2023/04/20 12:03:28;;;;;;;7.80;3.30;;;10.50;98.00;;;;;;5032668;28;20466;-65
2023/04/20 12:05:55;;;;;;;11.73;4.23;;;10.40;98.00;;;;;;5032848;28;21008;-65
2023/04/20 12:08:23;;;;;;;5.77;3.17;;;10.40;98.00;;;;;;5032608;28;20462;-65
2023/04/20 12:10:50;;;;;;;6.87;3.50;;;10.30;98.00;;;;;;5032410;28;20465;-65
2023/04/20 12:13:17;;;;;;;7.80;3.27;;;10.20;98.00;;;;;;5032614;28;20947;-65
2023/04/20 12:15:45;;;;;;;7.40;4.10;;;10.10;98.00;;;;;;5032471;28;20462;-65
2023/04/20 12:18:14;;;;;;;7.07;3.50;;;10.10;98.00;;;;;;5032417;28;20513;-65
2023/04/20 12:20:41;;;;;;;6.67;3.80;;;10.00;98.00;;;;;;5032266;28;20466;-65
2023/04/20 12:23:10;;;;;;;8.00;3.80;;;10.10;98.00;;;;;;5031026;28;20456;-67
2023/04/20 12:25:38;;;;;;;7.67;3.50;;;10.10;98.00;;;;;;5031112;28;20459;-67
2023/04/20 12:28:06;;;;;;;8.00;3.77;;;10.10;98.00;;;;;;5031079;28;20829;-67
2023/04/20 12:30:34;;;;;;;7.80;3.40;;;10.10;98.00;;;;;;5032097;28;20467;-66
2023/04/20 12:33:02;;;;;;;6.40;3.90;;;10.10;98.00;;;;;;5032411;28;20484;-65
2023/04/20 12:35:30;;;;;;;5.33;2.93;;;10.10;98.00;;;;;;5032291;28;20556;-65
2023/04/20 12:37:57;;;;;;;6.80;3.80;;;10.10;98.00;;;;;;5031180;28;20529;-64
2023/04/20 12:40:25;;;;;;;8.70;3.57;;;9.90;98.00;;;;;;5032114;28;20457;-65
2023/04/20 12:42:52;;;;;;;5.53;3.60;;;9.90;98.00;;;;;;5032078;28;20523;-65
2023/04/20 12:45:20;;;;;;;6.47;3.27;;;9.70;98.00;;;;;;5031634;28;20458;-65
2023/04/20 12:47:47;;;;;;;9.43;3.93;;;9.80;98.00;;;;;;5031775;28;20789;-65
2023/04/20 12:50:14;;;;;;;4.90;3.00;;;9.70;98.00;;;;;;5032445;28;20450;-65
2023/04/20 12:52:44;;;;;;;6.83;3.53;;;9.60;98.00;;;;;;5032057;28;20529;-65
2023/04/20 12:55:11;;;;;;;4.00;2.53;;;9.60;98.00;;;;;;5031743;28;20450;-65
2023/04/20 12:57:38;;;;;;;8.73;3.57;;;9.50;98.00;;;;;;5031587;28;20537;-65
2023/04/20 13:00:07;;;;;;;8.83;3.20;;;9.50;98.00;;;;;;5030975;28;20477;-65